Time;durP1;ratioP1;P1;durP2;ratioP2;P2;SDS_P1;SDS_P2;PMS_P1;PMS_P2;Temp;Humidity;BMP_temperature;BMP_pressure;BME280_temperature;BME280_humidity;BME280_pressure;Samples;Min_cycle;Max_cycle;Signal;HPM_P1;HPM_P2
2022/05/17 00:01:04;;;;;;;38.72;16.13;;;;;;;;;;5042462;28;20040;-70
2022/05/17 00:03:30;;;;;;;41.20;16.50;;;;;;;;;;5042249;28;20072;-69
2022/05/17 00:05:56;;;;;;;38.78;15.23;;;;;;;;;;5024801;28;20017;-70
2022/05/17 00:08:23;;;;;;;31.00;15.60;;;;;;;;;;5044667;28;20024;-70
2022/05/17 00:10:49;;;;;;;37.78;16.73;;;;;;;;;;5026762;28;20055;-70
2022/05/17 00:13:15;;;;;;;35.40;15.70;;;;;;;;;;5044280;28;20115;-70
2022/05/17 00:15:43;;;;;;;34.20;15.82;;;;;;;;;;5046267;28;20025;-70
2022/05/17 00:18:13;;;;;;;35.72;16.23;;;;;;;;;;5048532;28;20028;-70
2022/05/17 00:20:41;;;;;;;33.50;16.42;;;;;;;;;;5050800;28;20523;-70
2022/05/17 00:23:07;;;;;;;34.97;15.98;;;;;;;;;;5031674;28;20470;-70
2022/05/17 00:25:34;;;;;;;34.88;16.20;;;;;;;;;;5030965;28;20094;-70
2022/05/17 00:28:01;;;;;;;30.63;17.13;;;;;;;;;;5048327;28;20032;-70
2022/05/17 00:30:27;;;;;;;34.78;16.50;;;;;;;;;;5048088;28;20029;-70
2022/05/17 00:32:53;;;;;;;35.47;16.75;;;;;;;;;;5049453;28;20039;-70
2022/05/17 00:35:19;;;;;;;35.67;16.50;;;;;;;;;;5051205;28;20035;-70
2022/05/17 00:37:45;;;;;;;39.30;17.33;;;;;;;;;;5047979;28;20041;-70
2022/05/17 00:40:12;;;;;;;34.22;16.98;;;;;;;;;;5048151;28;20047;-70
2022/05/17 00:42:38;;;;;;;40.70;17.60;;;;;;;;;;5047913;28;20108;-70
2022/05/17 00:45:07;;;;;;;37.70;17.40;;;;;;;;;;5030840;28;20060;-70
2022/05/17 00:47:36;;;;;;;41.10;17.70;;;;;;;;;;5051430;28;20044;-70
2022/05/17 00:50:14;;;;;;;35.67;17.65;;;;;;;;;;5050240;28;20057;-70
2022/05/17 00:52:42;;;;;;;41.25;17.77;;;;;;;;;;5047950;28;20460;-70
2022/05/17 00:55:22;;;;;;;37.83;17.85;;;;;;;;;;5048295;28;20086;-70
2022/05/17 00:57:57;;;;;;;35.50;17.27;;;;;;;;;;5048680;28;20398;-70
2022/05/17 01:00:24;;;;;;;37.10;18.23;;;;;;;;;;5048361;28;20029;-70
2022/05/17 01:02:53;;;;;;;35.38;17.05;;;;;;;;;;5031861;28;20037;-70
2022/05/17 01:05:19;;;;;;;40.17;18.48;;;;;;;;;;5050368;28;20025;-70
2022/05/17 01:07:50;;;;;;;35.70;17.67;;;;;;;;;;5048307;28;20029;-70
2022/05/17 01:10:16;;;;;;;41.97;18.02;;;;;;;;;;5048263;28;20033;-70
2022/05/17 01:12:43;;;;;;;40.15;17.05;;;;;;;;;;5048414;28;20036;-70
2022/05/17 01:15:11;;;;;;;37.33;17.88;;;;;;;;;;5047985;28;20109;-70
2022/05/17 01:17:38;;;;;;;36.47;16.98;;;;;;;;;;5048118;28;20045;-70
2022/05/17 01:20:06;;;;;;;31.55;16.00;;;;;;;;;;5049070;28;20033;-70
2022/05/17 01:22:32;;;;;;;34.60;16.42;;;;;;;;;;5047956;28;20556;-70
2022/05/17 01:24:58;;;;;;;29.23;15.52;;;;;;;;;;5048244;28;20028;-70
2022/05/17 01:27:33;;;;;;;27.70;15.38;;;;;;;;;;5048290;28;20029;-70
2022/05/17 01:29:59;;;;;;;30.10;14.93;;;;;;;;;;5032895;28;20025;-70
2022/05/17 01:32:25;;;;;;;29.23;15.80;;;;;;;;;;5052355;28;20026;-70
2022/05/17 01:34:52;;;;;;;21.30;14.10;;;;;;;;;;5048345;28;20091;-69
2022/05/17 01:37:18;;;;;;;25.92;15.93;;;;;;;;;;5047778;28;20093;-70
2022/05/17 01:39:45;;;;;;;27.10;15.40;;;;;;;;;;5049334;28;20033;-70
2022/05/17 01:42:11;;;;;;;29.83;15.48;;;;;;;;;;5047785;28;20037;-69
2022/05/17 01:44:38;;;;;;;25.98;16.10;;;;;;;;;;5050512;28;20017;-70
2022/05/17 01:47:05;;;;;;;28.70;16.55;;;;;;;;;;5048851;28;20091;-70
2022/05/17 01:49:31;;;;;;;31.02;16.60;;;;;;;;;;5046805;28;20036;-69
2022/05/17 01:51:57;;;;;;;47.70;20.60;;;;;;;;;;5047840;28;20041;-70
2022/05/17 01:54:23;;;;;;;67.90;23.83;;;;;;;;;;5048283;28;20056;-70
2022/05/17 01:56:49;;;;;;;58.63;25.30;;;;;;;;;;5048787;28;20042;-70
2022/05/17 01:59:17;;;;;;;60.83;24.05;;;;;;;;;;5050248;28;20502;-70
2022/05/17 02:01:44;;;;;;;67.07;23.73;;;;;;;;;;5048174;28;20029;-70
2022/05/17 02:04:11;;;;;;;75.28;26.48;;;;;;;;;;5047291;28;20397;-70
2022/05/17 02:06:37;;;;;;;93.03;29.08;;;;;;;;;;5047398;28;20029;-69
2022/05/17 02:09:03;;;;;;;76.10;26.42;;;;;;;;;;5049241;28;20065;-69
2022/05/17 02:11:29;;;;;;;86.03;26.15;;;;;;;;;;5051407;28;20036;-70
2022/05/17 02:13:55;;;;;;;90.50;27.35;;;;;;;;;;5049740;28;20033;-70
2022/05/17 02:16:22;;;;;;;77.07;26.52;;;;;;;;;;5047595;28;20044;-70
2022/05/17 02:18:48;;;;;;;73.38;26.77;;;;;;;;;;5050300;28;20071;-70
2022/05/17 02:21:14;;;;;;;62.42;25.20;;;;;;;;;;5051337;28;20037;-70
2022/05/17 02:23:41;;;;;;;64.90;26.95;;;;;;;;;;5053530;28;20071;-70
2022/05/17 02:26:07;;;;;;;71.65;26.20;;;;;;;;;;5036081;28;20090;-70
2022/05/17 02:28:35;;;;;;;58.30;24.63;;;;;;;;;;5050851;28;20037;-70
2022/05/17 02:31:01;;;;;;;57.63;24.25;;;;;;;;;;5051193;28;20090;-70
2022/05/17 02:33:28;;;;;;;70.25;28.17;;;;;;;;;;5051226;28;20019;-70
2022/05/17 02:35:54;;;;;;;72.97;28.48;;;;;;;;;;5052043;28;20033;-70
2022/05/17 02:38:20;;;;;;;81.00;29.65;;;;;;;;;;5053872;28;20118;-70
2022/05/17 02:40:46;;;;;;;78.78;32.67;;;;;;;;;;5051133;28;20064;-70
2022/05/17 02:43:14;;;;;;;88.25;33.22;;;;;;;;;;5051007;28;20039;-70
2022/05/17 02:45:40;;;;;;;85.22;33.92;;;;;;;;;;5050726;28;20025;-69
2022/05/17 02:48:06;;;;;;;79.78;33.10;;;;;;;;;;5050392;28;20034;-69
2022/05/17 02:50:33;;;;;;;76.82;31.48;;;;;;;;;;5053452;28;20029;-70
2022/05/17 02:52:59;;;;;;;74.75;28.90;;;;;;;;;;5051430;28;20045;-69
2022/05/17 02:55:25;;;;;;;71.95;24.98;;;;;;;;;;5049431;28;20493;-69
2022/05/17 02:57:51;;;;;;;59.53;24.40;;;;;;;;;;5050224;28;20047;-70
2022/05/17 03:00:18;;;;;;;57.22;24.30;;;;;;;;;;5050870;28;20120;-69
2022/05/17 03:02:44;;;;;;;60.15;25.63;;;;;;;;;;5034496;28;20086;-70
2022/05/17 03:05:11;;;;;;;74.72;26.50;;;;;;;;;;5051997;28;20040;-70
2022/05/17 03:07:38;;;;;;;65.18;23.60;;;;;;;;;;5050139;28;20103;-70
2022/05/17 03:10:05;;;;;;;69.85;27.52;;;;;;;;;;5050395;28;20028;-70
2022/05/17 03:12:31;;;;;;;80.53;28.30;;;;;;;;;;5050179;28;20099;-70
2022/05/17 03:14:59;;;;;;;81.68;27.55;;;;;;;;;;5034591;28;20063;-69
2022/05/17 03:17:25;;;;;;;71.75;26.15;;;;;;;;;;5048881;28;20025;-70
2022/05/17 03:19:53;;;;;;;70.95;27.52;;;;;;;;;;5050044;28;20110;-70
2022/05/17 03:22:19;;;;;;;66.60;26.17;;;;;;;;;;5050013;28;20098;-70
2022/05/17 03:24:46;;;;;;;61.10;26.05;;;;;;;;;;5049542;28;20025;-70
2022/05/17 03:27:12;;;;;;;67.00;26.73;;;;;;;;;;5049811;28;20487;-70
2022/05/17 03:29:38;;;;;;;64.72;26.70;;;;;;;;;;5050689;28;20534;-69
2022/05/17 03:32:04;;;;;;;63.58;26.77;;;;;;;;;;5051132;28;20036;-69
2022/05/17 03:34:30;;;;;;;68.60;27.95;;;;;;;;;;5050078;28;20085;-69
2022/05/17 03:36:57;;;;;;;78.72;29.70;;;;;;;;;;5049418;28;20041;-70
2022/05/17 03:39:23;;;;;;;71.60;27.92;;;;;;;;;;5049703;28;20108;-70
2022/05/17 03:41:49;;;;;;;70.20;29.10;;;;;;;;;;5051500;28;20045;-70
2022/05/17 03:44:17;;;;;;;79.32;29.70;;;;;;;;;;5052841;28;20044;-69
2022/05/17 03:46:43;;;;;;;69.32;27.85;;;;;;;;;;5049331;28;20029;-70
2022/05/17 03:49:09;;;;;;;59.80;24.90;;;;;;;;;;5049541;28;20040;-70
2022/05/17 03:51:36;;;;;;;63.42;25.65;;;;;;;;;;5047283;28;20087;-69
2022/05/17 03:54:02;;;;;;;69.45;27.73;;;;;;;;;;5049327;28;20029;-69
2022/05/17 03:56:28;;;;;;;69.55;25.48;;;;;;;;;;5053301;28;20103;-69
2022/05/17 03:58:54;;;;;;;69.50;26.88;;;;;;;;;;5050657;28;20041;-69
2022/05/17 04:01:20;;;;;;;63.35;26.00;;;;;;;;;;5049236;28;20028;-69
2022/05/17 04:03:46;;;;;;;74.43;26.40;;;;;;;;;;5049222;28;20039;-69
2022/05/17 04:06:12;;;;;;;73.03;27.52;;;;;;;;;;5049378;28;20027;-70
2022/05/17 04:08:40;;;;;;;74.00;27.77;;;;;;;;;;5051259;28;20032;-70
2022/05/17 04:11:06;;;;;;;70.63;27.63;;;;;;;;;;5050662;28;20017;-70
2022/05/17 04:13:33;;;;;;;70.85;27.33;;;;;;;;;;5048926;28;20033;-69
2022/05/17 04:15:59;;;;;;;73.70;28.92;;;;;;;;;;5048641;28;20037;-70
2022/05/17 04:18:26;;;;;;;81.88;28.70;;;;;;;;;;5048801;28;20525;-70
2022/05/17 04:20:57;;;;;;;79.28;32.25;;;;;;;;;;5050025;28;20561;-70
2022/05/17 04:23:23;;;;;;;85.32;33.03;;;;;;;;;;5052207;28;20036;-69
2022/05/17 04:25:49;;;;;;;77.22;29.30;;;;;;;;;;5048819;28;20033;-69
2022/05/17 04:28:17;;;;;;;64.07;28.23;;;;;;;;;;5048830;28;20025;-69
2022/05/17 04:30:44;;;;;;;65.55;29.65;;;;;;;;;;5048743;28;20376;-69
2022/05/17 04:33:10;;;;;;;61.65;28.85;;;;;;;;;;5048039;28;20021;-70
2022/05/17 04:35:36;;;;;;;65.47;28.95;;;;;;;;;;5051202;28;20037;-69
2022/05/17 04:38:03;;;;;;;81.43;35.17;;;;;;;;;;5048814;28;20401;-69
2022/05/17 04:40:29;;;;;;;75.18;33.85;;;;;;;;;;5048237;28;20029;-69
2022/05/17 04:42:57;;;;;;;71.95;38.10;;;;;;;;;;5026263;28;20017;-69
2022/05/17 04:45:24;;;;;;;72.07;43.00;;;;;;;;;;5048662;28;20025;-69
2022/05/17 04:47:50;;;;;;;73.90;42.55;;;;;;;;;;5049891;28;20082;-69
2022/05/17 04:50:17;;;;;;;73.25;46.28;;;;;;;;;;5050869;28;20029;-69
2022/05/17 04:52:43;;;;;;;69.18;42.03;;;;;;;;;;5047425;28;20045;-69
2022/05/17 04:55:10;;;;;;;81.53;41.85;;;;;;;;;;5048524;28;20037;-69
2022/05/17 04:57:37;;;;;;;71.10;40.75;;;;;;;;;;5047999;28;20457;-69
2022/05/17 05:00:05;;;;;;;82.55;36.42;;;;;;;;;;5048671;28;20099;-70
2022/05/17 05:02:31;;;;;;;73.10;32.88;;;;;;;;;;5051103;28;20498;-71
2022/05/17 05:04:57;;;;;;;79.10;33.97;;;;;;;;;;5032000;28;20406;-73
2022/05/17 05:07:24;;;;;;;66.50;31.40;;;;;;;;;;5046662;28;20028;-72
2022/05/17 05:09:50;;;;;;;75.65;32.88;;;;;;;;;;5047118;28;20033;-72
2022/05/17 05:12:16;;;;;;;76.80;33.00;;;;;;;;;;5047770;28;20037;-72
2022/05/17 05:14:42;;;;;;;84.70;34.80;;;;;;;;;;5050098;28;20120;-72
2022/05/17 05:17:09;;;;;;;81.68;33.45;;;;;;;;;;5049261;28;20076;-72
2022/05/17 05:19:35;;;;;;;97.80;35.65;;;;;;;;;;5048002;28;20107;-71
2022/05/17 05:22:02;;;;;;;89.55;32.55;;;;;;;;;;5047827;28;20028;-71
2022/05/17 05:24:29;;;;;;;87.63;32.22;;;;;;;;;;5046915;28;20040;-71
2022/05/17 05:26:55;;;;;;;89.38;33.65;;;;;;;;;;5048759;28;20189;-71
2022/05/17 05:29:22;;;;;;;86.03;32.97;;;;;;;;;;5050997;28;20037;-71
2022/05/17 05:31:48;;;;;;;91.55;34.22;;;;;;;;;;5047978;28;20419;-72
2022/05/17 05:34:15;;;;;;;90.75;33.35;;;;;;;;;;5047668;28;20040;-71
2022/05/17 05:36:41;;;;;;;84.72;33.20;;;;;;;;;;5049311;28;20040;-70
2022/05/17 05:39:07;;;;;;;78.53;33.20;;;;;;;;;;5051624;28;20086;-71
2022/05/17 05:41:33;;;;;;;87.25;34.72;;;;;;;;;;5050079;28;20209;-72
2022/05/17 05:44:00;;;;;;;80.30;33.03;;;;;;;;;;5048440;28;20028;-72
2022/05/17 05:46:27;;;;;;;80.07;36.22;;;;;;;;;;5048072;28;20501;-70
2022/05/17 05:48:54;;;;;;;91.55;37.05;;;;;;;;;;5047812;28;20033;-70
2022/05/17 05:51:20;;;;;;;90.10;36.40;;;;;;;;;;5048073;28;20041;-70
2022/05/17 05:53:46;;;;;;;93.32;36.58;;;;;;;;;;5053501;28;20029;-70
2022/05/17 05:56:12;;;;;;;96.20;36.13;;;;;;;;;;5052419;28;20045;-69
2022/05/17 05:58:39;;;;;;;90.93;37.33;;;;;;;;;;5051449;28;20033;-69
2022/05/17 06:01:06;;;;;;;90.00;35.08;;;;;;;;;;5051587;28;20063;-69
2022/05/17 06:03:33;;;;;;;87.57;35.17;;;;;;;;;;5039924;28;20024;-69
2022/05/17 06:05:59;;;;;;;99.00;36.78;;;;;;;;;;5035616;28;20033;-70
2022/05/17 06:08:25;;;;;;;97.13;35.78;;;;;;;;;;5055329;28;20032;-71
2022/05/17 06:10:51;;;;;;;87.57;35.38;;;;;;;;;;5050687;28;20033;-71
2022/05/17 06:13:18;;;;;;;89.35;36.67;;;;;;;;;;5050125;28;20068;-68
2022/05/17 06:15:45;;;;;;;99.68;38.25;;;;;;;;;;5051286;28;20506;-68
2022/05/17 06:18:12;;;;;;;102.18;39.08;;;;;;;;;;5051058;28;20032;-70
2022/05/17 06:20:39;;;;;;;112.55;41.95;;;;;;;;;;5052942;28;20052;-71
2022/05/17 06:23:06;;;;;;;105.80;41.05;;;;;;;;;;5052302;28;20064;-71
2022/05/17 06:25:35;;;;;;;82.55;36.38;;;;;;;;;;5049600;28;20099;-71
2022/05/17 06:28:01;;;;;;;97.03;39.92;;;;;;;;;;5049961;28;20032;-71
2022/05/17 06:30:27;;;;;;;92.35;37.67;;;;;;;;;;5050203;28;20509;-71
2022/05/17 06:32:54;;;;;;;85.78;35.38;;;;;;;;;;5049581;28;20029;-70
2022/05/17 06:35:20;;;;;;;84.07;34.67;;;;;;;;;;5051158;28;20027;-69
2022/05/17 06:37:46;;;;;;;83.43;36.17;;;;;;;;;;5049589;28;20127;-70
2022/05/17 06:40:13;;;;;;;91.30;36.28;;;;;;;;;;5049905;28;20039;-70
2022/05/17 06:42:39;;;;;;;103.78;39.72;;;;;;;;;;5049999;28;20483;-69
2022/05/17 06:45:05;;;;;;;97.80;37.83;;;;;;;;;;5049565;28;20029;-70
2022/05/17 06:47:31;;;;;;;92.68;35.50;;;;;;;;;;5053548;28;20028;-69
2022/05/17 06:49:58;;;;;;;90.75;35.83;;;;;;;;;;5050653;28;20025;-69
2022/05/17 06:52:26;;;;;;;86.70;34.05;;;;;;;;;;5050201;28;20052;-69
2022/05/17 06:54:52;;;;;;;85.80;35.65;;;;;;;;;;5049074;28;20037;-69
2022/05/17 06:57:18;;;;;;;83.07;34.45;;;;;;;;;;5050326;28;20041;-70
2022/05/17 06:59:45;;;;;;;76.03;33.67;;;;;;;;;;5053089;28;20024;-69
2022/05/17 07:02:11;;;;;;;90.40;35.42;;;;;;;;;;5051885;28;20024;-69
2022/05/17 07:04:38;;;;;;;73.10;33.05;;;;;;;;;;5048446;28;20082;-70
2022/05/17 07:07:05;;;;;;;86.13;35.78;;;;;;;;;;5048084;28;20088;-68
2022/05/17 07:09:31;;;;;;;88.47;35.78;;;;;;;;;;5046193;28;20021;-70
2022/05/17 07:14:42;;;;;;;77.25;34.15;;;;;;;;;;5051151;28;20044;-69
2022/05/17 07:17:28;;;;;;;79.82;35.35;;;;;;;;;;5032537;28;20406;-70
2022/05/17 07:19:54;;;;;;;77.35;34.40;;;;;;;;;;5047685;28;20076;-70
2022/05/17 07:22:20;;;;;;;73.95;34.65;;;;;;;;;;5051233;28;20029;-69
2022/05/17 07:24:47;;;;;;;75.60;36.17;;;;;;;;;;5051682;28;20039;-69
2022/05/17 07:27:13;;;;;;;84.68;34.10;;;;;;;;;;5047673;28;20028;-69
2022/05/17 07:29:39;;;;;;;78.07;33.85;;;;;;;;;;5051601;28;20025;-69
2022/05/17 07:32:06;;;;;;;74.28;32.97;;;;;;;;;;5052193;28;20039;-69
2022/05/17 07:34:33;;;;;;;71.13;34.45;;;;;;;;;;5051182;28;20028;-69
2022/05/17 07:36:59;;;;;;;70.93;34.50;;;;;;;;;;5051127;28;20127;-69
2022/05/17 07:39:26;;;;;;;80.38;34.95;;;;;;;;;;5028250;28;20407;-69
2022/05/17 07:41:52;;;;;;;69.55;32.72;;;;;;;;;;5050019;28;20037;-69
2022/05/17 07:44:18;;;;;;;65.13;32.13;;;;;;;;;;5052233;28;20403;-69
2022/05/17 07:46:44;;;;;;;65.97;31.45;;;;;;;;;;5049629;28;20078;-69
2022/05/17 07:49:10;;;;;;;63.78;30.48;;;;;;;;;;5049886;28;20033;-69
2022/05/17 07:51:37;;;;;;;61.38;28.20;;;;;;;;;;5049265;28;20093;-69
2022/05/17 07:54:03;;;;;;;67.22;30.70;;;;;;;;;;5031470;28;20483;-69
2022/05/17 07:56:29;;;;;;;60.70;29.25;;;;;;;;;;5053217;28;20079;-69
2022/05/17 07:58:55;;;;;;;65.53;28.80;;;;;;;;;;5049095;28;20413;-69
2022/05/17 08:01:21;;;;;;;61.55;29.48;;;;;;;;;;5049391;28;20483;-69
2022/05/17 08:03:47;;;;;;;55.70;27.30;;;;;;;;;;5049319;28;20025;-69
2022/05/17 08:06:13;;;;;;;56.28;26.02;;;;;;;;;;5049139;28;20052;-69
2022/05/17 08:08:39;;;;;;;48.47;24.88;;;;;;;;;;5051491;28;20487;-69
2022/05/17 08:11:06;;;;;;;56.92;26.70;;;;;;;;;;5050624;28;20559;-69
2022/05/17 08:13:32;;;;;;;48.38;23.90;;;;;;;;;;5031367;28;20082;-69
2022/05/17 08:15:58;;;;;;;39.10;21.27;;;;;;;;;;5048288;28;20074;-69
2022/05/17 08:18:24;;;;;;;44.65;20.65;;;;;;;;;;5049197;28;20028;-69
2022/05/17 08:20:50;;;;;;;46.45;23.05;;;;;;;;;;5050649;28;20391;-68
2022/05/17 08:23:17;;;;;;;50.28;22.45;;;;;;;;;;5051074;28;20029;-69
2022/05/17 08:28:28;;;;;;;42.25;19.83;;;;;;;;;;5049451;28;20471;-69
2022/05/17 08:30:54;;;;;;;47.85;22.10;;;;;;;;;;5048817;28;20043;-69
2022/05/17 08:33:20;;;;;;;40.30;18.58;;;;;;;;;;5049141;28;20030;-69
2022/05/17 08:35:49;;;;;;;39.35;17.45;;;;;;;;;;5050997;28;20032;-69
2022/05/17 08:38:18;;;;;;;32.40;16.13;;;;;;;;;;5050767;28;20079;-69
2022/05/17 08:40:56;;;;;;;31.10;17.67;;;;;;;;;;5048412;28;20044;-69
2022/05/17 08:43:28;;;;;;;36.50;17.08;;;;;;;;;;5048439;28;20586;-69
2022/05/17 08:46:11;;;;;;;30.50;16.08;;;;;;;;;;5048458;28;20491;-69
2022/05/17 08:48:44;;;;;;;41.95;20.10;;;;;;;;;;5048285;28;20029;-69
2022/05/17 08:51:12;;;;;;;44.13;19.17;;;;;;;;;;5048812;28;20109;-69
2022/05/17 08:53:39;;;;;;;38.78;18.02;;;;;;;;;;5051221;28;20459;-69
2022/05/17 08:56:06;;;;;;;39.92;16.27;;;;;;;;;;5049578;28;20033;-69
2022/05/17 08:58:33;;;;;;;33.05;16.70;;;;;;;;;;5048266;28;20394;-69
2022/05/17 09:01:01;;;;;;;33.67;15.98;;;;;;;;;;5048731;28;20033;-69
2022/05/17 09:03:46;;;;;;;30.95;16.20;;;;;;;;;;5048178;28;20033;-69
2022/05/17 09:06:17;;;;;;;35.15;16.83;;;;;;;;;;5034038;28;20041;-69
2022/05/17 09:08:44;;;;;;;32.20;18.02;;;;;;;;;;5050244;28;20036;-69
2022/05/17 09:11:10;;;;;;;36.70;16.73;;;;;;;;;;5049448;28;20040;-69
2022/05/17 09:13:59;;;;;;;38.38;16.77;;;;;;;;;;5048324;28;20037;-69
2022/05/17 09:16:27;;;;;;;35.72;16.88;;;;;;;;;;5035530;28;20407;-69
2022/05/17 09:18:53;;;;;;;44.58;16.17;;;;;;;;;;5047740;28;20032;-69
2022/05/17 09:21:39;;;;;;;36.17;16.27;;;;;;;;;;5048254;28;20048;-69
2022/05/17 09:24:07;;;;;;;34.03;15.18;;;;;;;;;;5033283;28;20028;-69
2022/05/17 09:26:34;;;;;;;35.70;16.55;;;;;;;;;;5053058;28;20124;-69
2022/05/17 09:29:00;;;;;;;34.30;15.43;;;;;;;;;;5053144;28;20033;-69
2022/05/17 09:31:31;;;;;;;36.03;14.85;;;;;;;;;;5052330;28;20119;-69
2022/05/17 09:33:59;;;;;;;37.80;15.38;;;;;;;;;;5052195;28;20029;-69
2022/05/17 09:36:29;;;;;;;31.70;14.75;;;;;;;;;;5052572;28;20033;-69
2022/05/17 09:38:55;;;;;;;30.70;12.88;;;;;;;;;;5053006;28;20083;-69
2022/05/17 09:41:31;;;;;;;29.75;13.15;;;;;;;;;;5037086;28;20040;-69
2022/05/17 09:44:05;;;;;;;32.40;12.32;;;;;;;;;;5051794;28;20507;-69
2022/05/17 09:46:43;;;;;;;27.52;13.07;;;;;;;;;;5052094;28;20025;-69
2022/05/17 09:54:53;;;;;;;33.85;14.50;;;;;;;;;;5051559;28;20114;-69
2022/05/17 09:57:21;;;;;;;31.65;13.80;;;;;;;;;;5051710;28;20418;-69
2022/05/17 09:59:48;;;;;;;33.58;14.82;;;;;;;;;;5054064;28;20506;-69
2022/05/17 10:02:32;;;;;;;33.15;14.70;;;;;;;;;;5053039;28;20041;-69
2022/05/17 10:04:58;;;;;;;30.20;14.93;;;;;;;;;;5053700;28;20033;-69
2022/05/17 10:07:26;;;;;;;32.47;14.70;;;;;;;;;;5051454;28;20033;-69
2022/05/17 10:09:52;;;;;;;36.08;16.65;;;;;;;;;;5051106;28;20111;-69
2022/05/17 10:12:39;;;;;;;33.33;15.20;;;;;;;;;;5033583;28;20036;-69
2022/05/17 10:15:07;;;;;;;34.63;14.23;;;;;;;;;;5036745;28;20078;-69
2022/05/17 10:17:37;;;;;;;33.47;15.07;;;;;;;;;;5054229;28;20069;-69
2022/05/17 10:20:12;;;;;;;42.03;18.25;;;;;;;;;;5035834;28;20029;-69
2022/05/17 10:22:38;;;;;;;38.33;16.70;;;;;;;;;;5029323;28;20037;-69
2022/05/17 10:25:09;;;;;;;42.28;17.17;;;;;;;;;;5051306;28;20036;-69
2022/05/17 10:27:41;;;;;;;39.10;18.13;;;;;;;;;;5051012;28;20039;-69
2022/05/17 10:30:07;;;;;;;38.65;17.58;;;;;;;;;;5050844;28;20029;-69
2022/05/17 10:32:37;;;;;;;39.80;17.05;;;;;;;;;;5035988;28;20533;-69
2022/05/17 10:35:21;;;;;;;36.80;18.00;;;;;;;;;;5052584;28;20108;-70
2022/05/17 10:38:05;;;;;;;44.10;17.48;;;;;;;;;;5049806;28;20375;-70
2022/05/17 10:40:32;;;;;;;37.97;16.63;;;;;;;;;;5050918;28;20486;-70
2022/05/17 10:42:59;;;;;;;35.42;16.52;;;;;;;;;;5051173;28;20035;-70
2022/05/17 10:45:33;;;;;;;36.63;16.80;;;;;;;;;;5050546;28;20036;-70
2022/05/17 10:47:59;;;;;;;36.80;15.57;;;;;;;;;;5051173;28;20410;-70
2022/05/17 10:50:34;;;;;;;42.08;16.10;;;;;;;;;;5054008;28;20029;-70
2022/05/17 10:53:06;;;;;;;45.10;16.17;;;;;;;;;;5050656;28;20057;-71
2022/05/17 10:55:36;;;;;;;37.92;14.85;;;;;;;;;;5050374;28;20036;-70
2022/05/17 10:58:20;;;;;;;36.22;15.57;;;;;;;;;;5050133;28;20037;-71
2022/05/17 11:01:09;;;;;;;39.45;14.70;;;;;;;;;;5049677;28;20162;-70
2022/05/17 11:03:47;;;;;;;32.70;13.65;;;;;;;;;;5037675;28;20056;-70
2022/05/17 11:06:26;;;;;;;42.28;14.57;;;;;;;;;;5032209;28;20028;-71
2022/05/17 11:08:52;;;;;;;36.42;12.80;;;;;;;;;;5051400;28;20041;-70
2022/05/17 11:11:21;;;;;;;40.03;15.45;;;;;;;;;;5034319;28;20036;-71
2022/05/17 11:14:08;;;;;;;34.08;13.98;;;;;;;;;;5049806;28;20043;-71
2022/05/17 11:16:38;;;;;;;35.90;14.15;;;;;;;;;;5049473;28;20033;-70
2022/05/17 11:19:25;;;;;;;35.25;14.93;;;;;;;;;;5049893;28;20787;-70
2022/05/17 11:21:55;;;;;;;35.78;13.75;;;;;;;;;;5050077;28;20493;-71
2022/05/17 11:24:39;;;;;;;34.72;14.25;;;;;;;;;;5049668;28;20022;-71
2022/05/17 11:27:24;;;;;;;29.00;13.90;;;;;;;;;;5034373;28;20033;-69
2022/05/17 11:29:56;;;;;;;35.30;13.88;;;;;;;;;;5051763;28;20556;-69
2022/05/17 11:32:23;;;;;;;33.20;13.07;;;;;;;;;;5052663;28;20411;-68
2022/05/17 11:34:49;;;;;;;28.13;13.48;;;;;;;;;;5049538;28;20521;-70
2022/05/17 11:37:34;;;;;;;31.58;11.43;;;;;;;;;;5049511;28;20049;-69
2022/05/17 11:40:03;;;;;;;40.53;12.57;;;;;;;;;;5049333;28;20036;-69
2022/05/17 11:42:29;;;;;;;33.15;12.02;;;;;;;;;;5049152;28;20025;-69
2022/05/17 11:44:56;;;;;;;35.08;12.32;;;;;;;;;;5050072;28;20041;-69
2022/05/17 11:47:37;;;;;;;30.35;13.02;;;;;;;;;;5052679;28;20029;-69
2022/05/17 11:50:16;;;;;;;53.70;23.38;;;;;;;;;;5049274;28;20033;-70
2022/05/17 11:53:02;;;;;;;51.97;26.90;;;;;;;;;;5048776;28;20106;-69
2022/05/17 11:55:29;;;;;;;63.90;28.67;;;;;;;;;;4951959;29;20051;-68
2022/05/17 11:57:56;;;;;;;51.88;28.80;;;;;;;;;;4951285;29;20058;-69
2022/05/17 12:00:27;;;;;;;57.03;27.40;;;;;;;;;;4951974;29;20043;-69
2022/05/17 12:03:00;;;;;;;55.35;27.20;;;;;;;;;;4950519;28;20035;-70
2022/05/17 12:05:43;;;;;;;56.55;27.55;;;;;;;;;;4951790;28;20501;-68
2022/05/17 12:08:27;;;;;;;55.22;28.05;;;;;;;;;;4951274;28;20071;-69
2022/05/17 12:11:06;;;;;;;53.03;26.17;;;;;;;;;;4950802;29;20437;-68
2022/05/17 12:13:37;;;;;;;54.03;25.13;;;;;;;;;;4947063;28;20045;-69
2022/05/17 12:16:07;;;;;;;49.17;24.73;;;;;;;;;;4944574;28;20031;-69
2022/05/17 12:18:40;;;;;;;56.47;23.50;;;;;;;;;;4950581;28;20417;-69
2022/05/17 12:21:15;;;;;;;48.05;21.40;;;;;;;;;;5102398;27;20385;-69
2022/05/17 12:23:44;;;;;;;51.28;21.92;;;;;;;;;;5087557;28;20031;-69
2022/05/17 12:26:15;;;;;;;41.15;20.13;;;;;;;;;;5087563;28;20062;-69
2022/05/17 12:28:49;;;;;;;45.88;21.02;;;;;;;;;;5087255;28;20066;-69
2022/05/17 12:31:26;;;;;;;45.05;19.40;;;;;;;;;;5084644;28;20036;-70
2022/05/17 12:33:53;;;;;;;44.38;20.00;;;;;;;;;;5087173;28;20028;-69
2022/05/17 12:36:23;;;;;;;46.25;19.65;;;;;;;;;;5084755;28;20032;-69
2022/05/17 12:44:32;;;;;;;47.35;19.27;;;;;;;;;;5098018;28;20077;-69
2022/05/17 12:46:58;;;;;;;43.28;19.05;;;;;;;;;;5088704;28;20031;-69
2022/05/17 12:49:26;;;;;;;44.97;18.90;;;;;;;;;;5085981;28;20070;-69
2022/05/17 12:51:54;;;;;;;48.22;17.15;;;;;;;;;;5087755;28;20328;-69
2022/05/17 12:54:24;;;;;;;41.05;18.55;;;;;;;;;;5084635;28;20035;-67
2022/05/17 12:56:51;;;;;;;43.75;18.35;;;;;;;;;;5083392;28;20032;-69
2022/05/17 12:59:24;;;;;;;40.00;16.85;;;;;;;;;;5088332;28;20564;-68
2022/05/17 13:01:56;;;;;;;43.55;18.67;;;;;;;;;;5086232;28;20062;-69
2022/05/17 13:04:30;;;;;;;38.90;16.30;;;;;;;;;;5090594;28;20115;-69
2022/05/17 13:07:12;;;;;;;46.38;16.95;;;;;;;;;;5080770;28;20447;-69
2022/05/17 13:09:39;;;;;;;38.15;16.30;;;;;;;;;;5084585;28;20061;-69
2022/05/17 13:12:16;;;;;;;34.95;16.00;;;;;;;;;;5082661;28;20040;-69
2022/05/17 13:14:42;;;;;;;31.02;15.52;;;;;;;;;;5080705;28;20024;-69
2022/05/17 13:17:08;;;;;;;34.53;15.68;;;;;;;;;;5085341;28;20028;-68
2022/05/17 13:19:35;;;;;;;31.75;15.02;;;;;;;;;;5083802;28;20524;-69
2022/05/17 13:22:01;;;;;;;38.63;16.30;;;;;;;;;;5083749;28;20069;-69
2022/05/17 13:24:27;;;;;;;40.00;16.17;;;;;;;;;;5086893;28;20538;-69
2022/05/17 13:26:57;;;;;;;28.70;13.43;;;;;;;;;;5087073;28;20385;-69
2022/05/17 13:29:27;;;;;;;33.25;14.27;;;;;;;;;;5091925;28;20032;-70
2022/05/17 13:32:01;;;;;;;34.38;12.93;;;;;;;;;;5074848;28;20500;-69
2022/05/17 13:34:29;;;;;;;26.20;11.23;;;;;;;;;;5075885;28;20036;-70
2022/05/17 13:37:04;;;;;;;25.20;11.85;;;;;;;;;;5071076;28;20066;-69
2022/05/17 13:39:31;;;;;;;23.95;10.70;;;;;;;;;;5070737;28;20032;-70
2022/05/17 13:41:57;;;;;;;29.83;10.90;;;;;;;;;;5072089;28;20025;-68
2022/05/17 13:44:46;;;;;;;24.33;10.32;;;;;;;;;;5073697;28;20035;-69
2022/05/17 13:47:19;;;;;;;27.60;11.18;;;;;;;;;;5073969;28;20039;-70
2022/05/17 13:49:47;;;;;;;24.02;10.20;;;;;;;;;;5070875;28;20032;-69
2022/05/17 13:52:39;;;;;;;30.27;11.20;;;;;;;;;;5071023;28;20119;-69
2022/05/17 13:55:11;;;;;;;28.52;9.63;;;;;;;;;;5067214;28;20054;-69
2022/05/17 13:57:38;;;;;;;28.35;10.73;;;;;;;;;;5069330;28;20435;-70
2022/05/17 14:00:06;;;;;;;29.00;10.63;;;;;;;;;;5069945;28;20532;-69
2022/05/17 14:02:37;;;;;;;32.35;11.15;;;;;;;;;;5073540;28;20028;-70
2022/05/17 14:05:22;;;;;;;26.02;10.27;;;;;;;;;;5086732;28;20089;-70
2022/05/17 14:11:49;;;;;;;27.30;10.02;;;;;;;;;;5085032;28;20029;-69
2022/05/17 14:13:30;;;;;;;31.38;9.95;;;;;;;;;;5069903;28;20097;-70
2022/05/17 14:15:56;;;;;;;22.98;9.10;;;;;;;;;;5069685;28;20086;-69
2022/05/17 14:18:24;;;;;;;20.80;8.98;;;;;;;;;;5070427;28;20039;-69
2022/05/17 14:20:51;;;;;;;25.77;9.25;;;;;;;;;;5072152;28;20053;-69
2022/05/17 14:23:17;;;;;;;32.63;9.30;;;;;;;;;;5070890;28;20400;-69
2022/05/17 14:25:43;;;;;;;29.25;10.35;;;;;;;;;;5069458;28;20044;-69
2022/05/17 14:28:09;;;;;;;33.13;10.80;;;;;;;;;;5067128;28;20032;-70
2022/05/17 14:30:36;;;;;;;25.73;9.57;;;;;;;;;;5071425;28;20031;-70
2022/05/17 14:33:03;;;;;;;23.38;9.60;;;;;;;;;;5067148;28;20108;-69
2022/05/17 14:35:30;;;;;;;23.42;9.65;;;;;;;;;;5073248;28;20429;-69
2022/05/17 14:37:57;;;;;;;26.02;9.77;;;;;;;;;;5069423;28;20487;-70
2022/05/17 14:40:23;;;;;;;27.77;9.07;;;;;;;;;;5069544;28;20131;-69
2022/05/17 14:42:49;;;;;;;24.77;9.13;;;;;;;;;;5068306;28;20107;-69
2022/05/17 14:45:16;;;;;;;22.08;9.02;;;;;;;;;;5069014;28;20037;-69
2022/05/17 14:47:42;;;;;;;24.08;8.75;;;;;;;;;;5071930;28;20387;-70